createdAt,value
2017-08-18T00:01:21.728Z,3.90
2017-08-18T00:03:48.426Z,3.63
2017-08-18T00:06:15.395Z,3.40
2017-08-18T00:08:42.307Z,2.90
2017-08-18T00:11:08.898Z,3.57
2017-08-18T00:13:35.507Z,3.17
2017-08-18T00:16:02.095Z,3.20
2017-08-18T00:18:28.677Z,3.10
2017-08-18T00:20:55.267Z,3.37
2017-08-18T00:23:21.850Z,3.60
2017-08-18T00:25:48.455Z,3.27
2017-08-18T00:28:15.087Z,3.30
2017-08-18T00:30:41.700Z,3.30
2017-08-18T00:33:08.288Z,3.47
2017-08-18T00:35:35.217Z,2.87
2017-08-18T00:38:01.798Z,3.90
2017-08-18T00:40:28.384Z,3.27
2017-08-18T00:42:54.979Z,3.57
2017-08-18T00:45:21.562Z,3.50
2017-08-18T00:47:48.261Z,3.50
2017-08-18T00:50:14.895Z,3.40
2017-08-18T00:52:41.636Z,3.57
2017-08-18T00:55:08.226Z,3.33
2017-08-18T00:57:34.834Z,3.30
2017-08-18T01:00:01.440Z,3.40
2017-08-18T01:02:28.027Z,3.10
2017-08-18T01:04:54.610Z,3.43
2017-08-18T01:07:21.227Z,3.37
2017-08-18T01:09:47.824Z,3.80
2017-08-18T01:12:14.610Z,3.30
2017-08-18T01:14:41.210Z,3.50
2017-08-18T01:17:07.790Z,3.73
2017-08-18T01:19:34.370Z,3.87
2017-08-18T01:22:00.963Z,3.57
2017-08-18T01:24:27.547Z,4.23
2017-08-18T01:26:54.149Z,3.80
2017-08-18T01:29:20.730Z,3.43
2017-08-18T01:31:47.679Z,3.80
2017-08-18T01:34:14.442Z,3.70
2017-08-18T01:36:41.016Z,3.40
2017-08-18T01:39:07.646Z,3.40
2017-08-18T01:41:34.227Z,3.30
2017-08-18T01:44:00.821Z,3.40
2017-08-18T01:46:27.402Z,3.87
2017-08-18T01:48:53.998Z,3.23
2017-08-18T01:51:20.600Z,3.73
2017-08-18T01:53:47.485Z,4.10
2017-08-18T01:56:14.126Z,4.00
2017-08-18T01:58:40.712Z,4.30
2017-08-18T02:01:07.299Z,4.40
2017-08-18T02:03:33.927Z,4.70
2017-08-18T02:06:00.654Z,4.37
2017-08-18T02:08:27.249Z,4.67
2017-08-18T02:10:53.849Z,4.60
2017-08-18T02:13:20.483Z,4.73
2017-08-18T02:15:47.210Z,4.00
2017-08-18T02:18:13.866Z,3.80
2017-08-18T02:20:40.454Z,3.77
2017-08-18T02:23:07.038Z,3.70
2017-08-18T02:25:33.625Z,3.90
2017-08-18T02:28:00.223Z,3.67
2017-08-18T02:30:26.817Z,3.73
2017-08-18T02:32:53.407Z,4.17
2017-08-18T02:35:20.010Z,3.80
2017-08-18T02:37:46.836Z,4.67
2017-08-18T02:40:13.855Z,5.13
2017-08-18T02:42:40.443Z,4.60
2017-08-18T02:45:07.027Z,4.83
2017-08-18T02:47:33.611Z,5.23
2017-08-18T02:50:00.202Z,4.57
2017-08-18T02:52:26.787Z,4.23
2017-08-18T02:54:53.375Z,4.20
2017-08-18T02:57:20.023Z,4.60
2017-08-18T02:59:46.612Z,5.37
2017-08-18T03:02:13.237Z,5.30
2017-08-18T03:04:39.943Z,4.80
2017-08-18T03:07:06.531Z,5.00
2017-08-18T03:09:33.110Z,4.70
2017-08-18T03:11:59.718Z,5.00
2017-08-18T03:14:26.326Z,5.17
2017-08-18T03:16:52.922Z,5.13
2017-08-18T03:19:19.503Z,5.77
2017-08-18T03:21:46.223Z,5.30
2017-08-18T03:24:12.896Z,4.93
2017-08-18T03:26:39.486Z,5.40
2017-08-18T03:29:06.078Z,5.20
2017-08-18T03:31:32.714Z,5.53
2017-08-18T03:33:59.303Z,5.50
2017-08-18T03:36:25.886Z,4.90
2017-08-18T03:38:52.470Z,4.93
2017-08-18T03:41:19.074Z,4.77
2017-08-18T03:43:45.749Z,4.90
2017-08-18T03:46:12.928Z,4.60
2017-08-18T03:48:39.554Z,5.00
2017-08-18T03:51:06.232Z,5.60
2017-08-18T03:53:32.806Z,5.00
2017-08-18T03:55:59.398Z,4.57
2017-08-18T03:58:25.982Z,4.83
2017-08-18T04:00:52.578Z,5.90
2017-08-18T04:03:19.218Z,5.40
2017-08-18T04:05:45.981Z,5.37
2017-08-18T04:08:12.667Z,4.97
2017-08-18T04:10:39.370Z,4.93
2017-08-18T04:13:05.961Z,5.27
2017-08-18T04:15:32.542Z,5.20
2017-08-18T04:17:59.131Z,5.50
2017-08-18T04:20:25.715Z,4.87
2017-08-18T04:22:52.326Z,4.60
2017-08-18T04:25:18.998Z,4.70
2017-08-18T04:27:45.626Z,3.60
2017-08-18T04:30:12.232Z,4.40
2017-08-18T04:32:38.822Z,4.30
2017-08-18T04:35:05.406Z,4.23
2017-08-18T04:37:32.099Z,4.30
2017-08-18T04:39:58.682Z,3.60
2017-08-18T04:42:25.262Z,3.70
2017-08-18T04:44:51.862Z,3.63
2017-08-18T04:47:18.468Z,4.00
2017-08-18T04:49:45.054Z,4.23
2017-08-18T04:52:11.643Z,3.60
2017-08-18T04:54:38.246Z,3.93
2017-08-18T04:57:04.818Z,3.57
2017-08-18T04:59:31.406Z,4.03
2017-08-18T05:01:57.986Z,3.50
2017-08-18T05:04:24.730Z,4.00
2017-08-18T05:06:51.351Z,4.20
2017-08-18T05:09:17.974Z,4.43
2017-08-18T05:11:44.649Z,4.57
2017-08-18T05:14:11.298Z,3.90
2017-08-18T05:16:37.953Z,4.80
2017-08-18T05:19:04.627Z,4.17
2017-08-18T05:21:31.260Z,4.37
2017-08-18T05:23:57.920Z,4.70
2017-08-18T05:26:24.522Z,4.87
2017-08-18T05:28:51.157Z,4.70
2017-08-18T05:31:17.787Z,4.17
2017-08-18T05:33:44.419Z,4.47
2017-08-18T05:36:11.038Z,4.50
2017-08-18T05:38:37.784Z,5.03
2017-08-18T05:41:04.560Z,5.00
2017-08-18T05:43:31.236Z,4.47
2017-08-18T05:45:57.888Z,4.63
2017-08-18T05:48:24.499Z,4.63
2017-08-18T05:50:51.181Z,5.00
2017-08-18T05:53:17.822Z,4.23
2017-08-18T05:55:44.457Z,4.80
2017-08-18T05:58:11.043Z,5.00
2017-08-18T06:00:37.630Z,5.30
2017-08-18T06:03:04.203Z,4.40
2017-08-18T06:05:30.791Z,4.20
2017-08-18T06:07:57.433Z,5.00
2017-08-18T06:10:24.058Z,5.10
2017-08-18T06:12:50.624Z,4.60
2017-08-18T06:15:17.472Z,5.13
2017-08-18T06:17:44.281Z,5.43
2017-08-18T06:20:10.874Z,5.17
2017-08-18T06:22:37.460Z,5.20
2017-08-18T06:25:04.052Z,4.97
2017-08-18T06:27:30.666Z,4.97
2017-08-18T06:29:57.311Z,4.90
2017-08-18T06:32:23.902Z,3.90
2017-08-18T06:34:50.587Z,4.43
2017-08-18T06:37:17.554Z,5.53
2017-08-18T06:39:44.148Z,4.40
2017-08-18T06:42:10.730Z,5.13
2017-08-18T06:44:37.474Z,5.00
2017-08-18T06:47:04.141Z,5.60
2017-08-18T06:49:30.787Z,5.00
2017-08-18T06:51:57.482Z,4.27
2017-08-18T06:54:24.071Z,5.13
2017-08-18T06:56:50.658Z,4.57
2017-08-18T06:59:17.356Z,4.40
2017-08-18T07:01:43.977Z,4.70
2017-08-18T07:04:10.618Z,4.73
2017-08-18T07:06:37.209Z,4.53
2017-08-18T07:09:03.827Z,4.80
2017-08-18T07:11:30.399Z,5.50
2017-08-18T07:13:56.975Z,4.73
2017-08-18T07:16:23.563Z,5.90
2017-08-18T07:18:50.188Z,5.70
2017-08-18T07:21:17.159Z,5.60
2017-08-18T07:23:43.815Z,5.53
2017-08-18T07:26:10.398Z,5.83
2017-08-18T07:28:37.003Z,5.63
2017-08-18T07:31:03.606Z,5.40
2017-08-18T07:33:30.208Z,6.30
2017-08-18T07:35:56.781Z,5.20
2017-08-18T07:38:24.279Z,5.10
2017-08-18T07:40:50.906Z,5.50
2017-08-18T07:43:17.485Z,5.90
2017-08-18T07:45:44.104Z,4.80
2017-08-18T07:48:10.674Z,5.13
2017-08-18T07:50:37.303Z,5.27
2017-08-18T07:53:03.914Z,4.73
2017-08-18T07:55:30.510Z,4.60
2017-08-18T07:57:57.131Z,4.43
2017-08-18T08:00:23.718Z,5.00
2017-08-18T08:02:50.311Z,4.40
2017-08-18T08:05:16.918Z,4.97
2017-08-18T08:07:43.522Z,5.03
2017-08-18T08:10:10.318Z,4.20
2017-08-18T08:12:36.902Z,4.67
2017-08-18T08:15:03.486Z,5.30
2017-08-18T08:17:30.070Z,4.80
2017-08-18T08:19:56.916Z,4.60
2017-08-18T08:22:23.622Z,4.93
2017-08-18T08:24:50.206Z,5.03
2017-08-18T08:27:17.053Z,4.33
2017-08-18T08:29:43.630Z,4.13
2017-08-18T08:32:10.216Z,4.50
2017-08-18T08:34:36.799Z,3.57
2017-08-18T08:37:03.430Z,3.80
2017-08-18T08:39:30.009Z,4.00
2017-08-18T08:41:56.598Z,4.23
2017-08-18T08:44:23.190Z,4.60
2017-08-18T08:46:49.920Z,4.40
2017-08-18T08:49:16.583Z,4.20
2017-08-18T08:51:43.233Z,4.70
2017-08-18T08:54:10.083Z,4.53
2017-08-18T09:08:32.235Z,6.80
2017-08-18T09:11:19.599Z,7.40
2017-08-18T09:19:32.143Z,8.20
2017-08-18T09:30:42.672Z,4.63
2017-08-18T09:38:52.158Z,6.47
2017-08-18T09:41:18.833Z,4.27
2017-08-18T09:43:45.431Z,4.73
2017-08-18T09:46:12.044Z,4.00
2017-08-18T09:48:44.439Z,4.60
2017-08-18T09:51:16.943Z,4.17
2017-08-18T09:56:50.298Z,3.90
2017-08-18T09:59:16.984Z,3.83
2017-08-18T10:01:43.570Z,3.90
2017-08-18T10:04:10.154Z,4.10
2017-08-18T10:06:36.734Z,3.60
2017-08-18T10:09:03.475Z,3.60
2017-08-18T10:11:30.054Z,3.90
2017-08-18T10:13:56.637Z,3.50
2017-08-18T10:16:23.218Z,3.60
2017-08-18T10:18:49.815Z,3.70
2017-08-18T10:21:16.454Z,4.20
2017-08-18T10:23:43.055Z,4.17
2017-08-18T10:26:09.656Z,4.33
2017-08-18T10:28:36.226Z,4.00
2017-08-18T10:31:02.827Z,4.00
2017-08-18T10:33:29.414Z,4.00
2017-08-18T10:35:55.991Z,3.67
2017-08-18T10:38:22.570Z,4.57
2017-08-18T10:40:49.178Z,4.20
2017-08-18T10:43:16.036Z,4.13
2017-08-18T10:45:42.641Z,3.30
2017-08-18T10:48:09.683Z,3.80
2017-08-18T10:50:36.272Z,3.63
2017-08-18T10:53:02.854Z,4.47
2017-08-18T10:55:29.447Z,3.30
2017-08-18T10:57:56.050Z,3.70
2017-08-18T11:00:22.652Z,3.70
2017-08-18T11:02:49.235Z,3.50
2017-08-18T11:05:16.409Z,3.50
2017-08-18T11:10:43.422Z,3.27
2017-08-18T11:13:15.825Z,4.20
2017-08-18T11:16:09.938Z,3.47
2017-08-18T11:18:39.386Z,3.67
2017-08-18T11:21:06.484Z,3.80
2017-08-18T11:23:33.096Z,3.27
2017-08-18T11:25:59.690Z,3.00
2017-08-18T11:28:26.278Z,3.00
2017-08-18T11:30:52.859Z,2.87
2017-08-18T11:33:19.454Z,3.90
2017-08-18T11:35:46.149Z,3.00
2017-08-18T11:38:12.738Z,2.97
2017-08-18T11:40:39.421Z,2.70
2017-08-18T11:43:06.008Z,2.90
2017-08-18T11:45:32.586Z,3.40
2017-08-18T11:47:59.318Z,3.43
2017-08-18T11:50:25.902Z,3.00
2017-08-18T11:52:52.482Z,2.60
2017-08-18T11:55:19.066Z,2.73
2017-08-18T11:57:45.657Z,3.10
2017-08-18T12:00:12.262Z,2.43
2017-08-18T12:02:38.843Z,2.83
2017-08-18T12:05:05.431Z,2.77
2017-08-18T12:07:32.019Z,2.80
2017-08-18T12:09:58.610Z,2.87
2017-08-18T12:12:25.196Z,2.70
2017-08-18T12:14:51.926Z,3.60
2017-08-18T12:17:18.651Z,3.20
2017-08-18T12:19:45.289Z,3.10
2017-08-18T12:22:12.081Z,3.07
2017-08-18T12:24:38.800Z,3.30
2017-08-18T12:27:05.378Z,2.90
2017-08-18T12:29:31.976Z,3.20
2017-08-18T12:31:58.554Z,2.80
2017-08-18T12:34:25.142Z,3.17
2017-08-18T12:36:51.728Z,3.03
2017-08-18T12:39:18.326Z,3.17
2017-08-18T12:41:44.930Z,3.27
2017-08-18T12:44:40.132Z,3.30
2017-08-18T12:47:37.320Z,3.30
2017-08-18T12:50:09.155Z,3.53
2017-08-18T12:58:57.582Z,2.10
2017-08-18T13:10:06.174Z,2.10
2017-08-18T13:12:35.033Z,2.20
2017-08-18T13:15:01.649Z,2.07
2017-08-18T13:20:49.463Z,2.40
2017-08-18T13:23:27.269Z,2.43
2017-08-18T13:32:05.451Z,3.00
2017-08-18T13:37:53.097Z,2.90
2017-08-18T13:40:49.163Z,3.03
2017-08-18T13:48:53.589Z,2.97
2017-08-18T13:51:41.710Z,3.20
2017-08-18T13:54:16.036Z,2.80
2017-08-18T13:56:52.892Z,2.80
2017-08-18T13:59:51.624Z,3.83
2017-08-18T14:02:46.752Z,3.50
2017-08-18T14:08:23.031Z,4.10
2017-08-18T14:11:04.411Z,4.20
2017-08-18T14:14:05.484Z,4.40
2017-08-18T14:16:43.597Z,4.07
2017-08-18T14:19:26.054Z,4.00
2017-08-18T14:25:17.948Z,3.63
2017-08-18T14:27:58.255Z,3.70
2017-08-18T14:30:46.506Z,3.87
2017-08-18T14:33:33.939Z,3.93
2017-08-18T14:36:25.100Z,4.20
2017-08-18T14:38:53.599Z,4.10
2017-08-18T14:41:20.195Z,4.73
2017-08-18T14:43:46.786Z,4.57
2017-08-18T14:46:13.376Z,4.00
2017-08-18T14:48:39.978Z,3.87
2017-08-18T14:51:06.561Z,3.73
2017-08-18T14:53:33.147Z,4.57
2017-08-18T14:55:59.771Z,4.40
2017-08-18T14:58:26.498Z,4.53
2017-08-18T15:00:53.077Z,4.97
2017-08-18T15:03:19.649Z,4.90
2017-08-18T15:05:46.243Z,4.60
2017-08-18T15:08:12.821Z,4.70
2017-08-18T15:10:39.406Z,5.30
2017-08-18T15:13:05.995Z,4.83
2017-08-18T15:15:32.885Z,5.10
2017-08-18T15:17:59.804Z,4.70
2017-08-18T15:20:26.405Z,4.70
2017-08-18T15:22:52.994Z,4.93
2017-08-18T15:25:19.587Z,5.00
2017-08-18T15:27:46.198Z,5.47
2017-08-18T15:30:12.774Z,5.07
2017-08-18T15:32:39.374Z,4.80
2017-08-18T15:35:05.946Z,4.93
2017-08-18T15:37:32.558Z,4.40
2017-08-18T15:39:59.171Z,4.17
2017-08-18T15:42:25.833Z,4.27
2017-08-18T15:44:52.430Z,4.10
2017-08-18T15:47:19.014Z,3.50
2017-08-18T15:49:45.626Z,3.70
2017-08-18T15:52:12.206Z,4.27
2017-08-18T15:54:40.515Z,4.17
2017-08-18T15:57:07.091Z,3.80
2017-08-18T15:59:33.691Z,3.60
2017-08-18T16:02:00.279Z,3.33
2017-08-18T16:04:27.100Z,3.67
2017-08-18T16:06:53.746Z,3.43
2017-08-18T16:09:20.338Z,3.17
2017-08-18T16:11:46.923Z,2.80
2017-08-18T16:14:13.514Z,3.20
2017-08-18T16:16:40.158Z,3.10
2017-08-18T16:19:06.846Z,2.97
2017-08-18T16:21:36.416Z,3.20
2017-08-18T16:24:03.089Z,3.10
2017-08-18T16:26:29.683Z,3.27
2017-08-18T16:28:56.263Z,3.53
2017-08-18T16:31:22.846Z,3.37
2017-08-18T16:33:49.554Z,3.30
2017-08-18T16:36:16.967Z,3.30
2017-08-18T16:38:43.540Z,2.93
2017-08-18T16:41:10.139Z,3.00
2017-08-18T16:43:36.831Z,3.27
2017-08-18T16:46:03.414Z,2.70
2017-08-18T16:48:30.002Z,2.97
2017-08-18T16:51:03.105Z,2.77
2017-08-18T16:53:29.789Z,3.10
2017-08-18T16:55:56.375Z,2.73
2017-08-18T16:58:22.954Z,3.30
2017-08-18T17:00:49.546Z,3.00
2017-08-18T17:03:16.126Z,3.03
2017-08-18T17:05:42.724Z,3.37
2017-08-18T17:08:09.304Z,3.57
2017-08-18T17:10:35.899Z,3.13
2017-08-18T17:13:02.506Z,3.50
2017-08-18T17:15:29.120Z,3.27
2017-08-18T17:17:55.747Z,3.13
2017-08-18T17:20:22.335Z,3.70
2017-08-18T17:22:48.915Z,3.73
2017-08-18T17:25:15.512Z,3.60
2017-08-18T17:27:42.089Z,3.70
2017-08-18T17:30:08.731Z,3.33
2017-08-18T17:32:35.318Z,3.70
2017-08-18T17:35:01.910Z,3.40
2017-08-18T17:37:28.545Z,3.90
2017-08-18T17:39:55.139Z,3.50
2017-08-18T17:42:21.730Z,4.47
2017-08-18T17:44:48.310Z,4.30
2017-08-18T17:47:14.903Z,4.27
2017-08-18T17:49:41.507Z,8.20
2017-08-18T17:52:08.111Z,11.20
2017-08-18T17:54:34.698Z,10.30
2017-08-18T17:57:01.405Z,5.20
2017-08-18T17:59:27.999Z,4.40
2017-08-18T18:01:54.592Z,4.10
2017-08-18T18:04:21.206Z,3.90
2017-08-18T18:06:47.787Z,4.10
2017-08-18T18:09:14.459Z,4.20
2017-08-18T18:11:41.086Z,4.00
2017-08-18T18:14:07.692Z,4.00
2017-08-18T18:16:34.286Z,4.67
2017-08-18T18:19:00.878Z,4.57
2017-08-18T18:21:27.503Z,4.57
2017-08-18T18:23:54.128Z,4.23
2017-08-18T18:26:20.693Z,4.80
2017-08-18T18:28:47.378Z,4.57
2017-08-18T18:31:13.965Z,4.70
2017-08-18T18:33:40.544Z,4.70
2017-08-18T18:36:07.132Z,4.77
2017-08-18T18:38:33.715Z,5.33
2017-08-18T18:41:00.335Z,4.97
2017-08-18T18:43:26.911Z,4.80
2017-08-18T18:45:53.506Z,4.60
2017-08-18T18:48:20.091Z,5.27
2017-08-18T18:50:46.678Z,5.37
2017-08-18T18:53:13.266Z,6.60
2017-08-18T18:55:39.863Z,6.40
2017-08-18T18:58:06.478Z,6.27
2017-08-18T19:00:33.047Z,5.50
2017-08-18T19:02:59.642Z,6.00
2017-08-18T19:05:26.230Z,5.70
2017-08-18T19:07:52.830Z,5.33
2017-08-18T19:10:19.409Z,5.60
2017-08-18T19:12:45.999Z,5.37
2017-08-18T19:17:58.639Z,5.33
2017-08-18T19:20:25.478Z,5.57
2017-08-18T19:22:52.062Z,4.53
2017-08-18T19:25:18.650Z,4.27
2017-08-18T19:27:52.428Z,4.33
2017-08-18T19:30:19.022Z,4.50
2017-08-18T19:32:51.910Z,5.17
2017-08-18T19:35:18.620Z,5.00
2017-08-18T19:37:45.203Z,4.43
2017-08-18T19:40:11.802Z,4.90
2017-08-18T19:42:38.430Z,4.67
2017-08-18T19:45:11.877Z,4.50
2017-08-18T19:47:38.455Z,4.00
2017-08-18T19:50:05.045Z,4.60
2017-08-18T19:52:31.654Z,4.63
2017-08-18T19:55:04.698Z,4.37
2017-08-18T19:57:31.310Z,5.60
2017-08-18T19:59:57.910Z,4.50
2017-08-18T20:02:24.520Z,4.37
2017-08-18T20:04:51.174Z,4.20
2017-08-18T20:07:17.744Z,4.20
2017-08-18T20:09:44.335Z,3.77
2017-08-18T20:12:14.012Z,3.93
2017-08-18T20:14:43.758Z,3.50
2017-08-18T20:17:10.338Z,3.83
2017-08-18T20:19:43.019Z,3.43
2017-08-18T20:22:09.590Z,3.30
2017-08-18T20:24:36.170Z,2.57
2017-08-18T20:27:02.763Z,2.53
2017-08-18T20:29:29.347Z,3.10
2017-08-18T20:31:55.964Z,2.80
2017-08-18T20:34:22.587Z,2.70
2017-08-18T20:36:55.351Z,3.20
2017-08-18T20:39:21.937Z,2.90
2017-08-18T20:41:48.514Z,3.17
2017-08-18T20:44:15.151Z,2.90
2017-08-18T20:46:41.717Z,3.37
2017-08-18T20:49:08.304Z,3.37
2017-08-18T20:51:34.918Z,3.20
2017-08-18T20:54:03.426Z,2.93
2017-08-18T20:56:33.015Z,3.20
2017-08-18T20:59:05.870Z,3.00
2017-08-18T21:01:32.457Z,3.30
2017-08-18T21:03:59.050Z,3.27
2017-08-18T21:06:25.642Z,3.67
2017-08-18T21:08:52.238Z,4.00
2017-08-18T21:11:18.848Z,3.00
2017-08-18T21:13:45.457Z,3.80
2017-08-18T21:16:12.025Z,3.70
2017-08-18T21:18:38.614Z,3.67
2017-08-18T21:21:05.202Z,3.60
2017-08-18T21:23:31.794Z,4.40
2017-08-18T21:25:58.423Z,4.40
2017-08-18T21:28:25.076Z,4.53
2017-08-18T21:30:51.669Z,4.70
2017-08-18T21:33:18.273Z,4.70
2017-08-18T21:35:44.944Z,4.70
2017-08-18T21:38:11.510Z,5.17
2017-08-18T21:40:38.110Z,5.20
2017-08-18T21:43:04.712Z,5.40
2017-08-18T21:45:31.314Z,6.20
2017-08-18T21:47:58.100Z,6.60
2017-08-18T21:50:24.854Z,6.73
2017-08-18T21:52:51.594Z,6.07
2017-08-18T21:55:18.223Z,6.27
2017-08-18T21:57:44.807Z,6.00
2017-08-18T22:00:11.502Z,5.60
2017-08-18T22:02:38.101Z,5.97
2017-08-18T22:05:04.675Z,5.27
2017-08-18T22:07:31.368Z,5.10
2017-08-18T22:09:58.267Z,5.43
2017-08-18T22:12:25.159Z,6.00
2017-08-18T22:14:51.738Z,5.60
2017-08-18T22:17:18.323Z,5.17
2017-08-18T22:19:44.919Z,5.40
2017-08-18T22:22:11.498Z,5.80
2017-08-18T22:24:38.522Z,5.47
2017-08-18T22:27:05.194Z,5.30
2017-08-18T22:29:31.779Z,6.07
2017-08-18T22:31:58.434Z,5.43
2017-08-18T22:34:25.040Z,5.33
2017-08-18T22:36:51.740Z,4.43
2017-08-18T22:39:18.302Z,5.00
2017-08-18T22:41:44.882Z,4.93
2017-08-18T22:44:11.482Z,4.90
2017-08-18T22:46:38.067Z,4.80
2017-08-18T22:49:04.807Z,4.17
2017-08-18T22:51:31.417Z,4.40
2017-08-18T22:53:58.021Z,3.97
2017-08-18T22:56:24.615Z,4.23
2017-08-18T22:58:51.194Z,3.67
2017-08-18T23:01:17.990Z,4.00
2017-08-18T23:03:44.597Z,3.63
2017-08-18T23:06:11.179Z,3.60
2017-08-18T23:08:37.770Z,3.30
2017-08-18T23:11:04.353Z,3.73
2017-08-18T23:13:30.965Z,3.30
2017-08-18T23:15:57.554Z,3.70
2017-08-18T23:18:24.126Z,3.40
2017-08-18T23:20:50.723Z,3.63
2017-08-18T23:23:17.296Z,3.47
2017-08-18T23:25:44.215Z,2.90
2017-08-18T23:28:10.791Z,3.30
2017-08-18T23:30:38.241Z,3.80
2017-08-18T23:33:04.826Z,3.40
2017-08-18T23:35:31.418Z,2.70
2017-08-18T23:37:58.269Z,3.03
2017-08-18T23:40:24.903Z,3.27
2017-08-18T23:42:51.478Z,3.00
2017-08-18T23:45:18.301Z,3.13
2017-08-18T23:47:44.911Z,3.10
2017-08-18T23:50:11.494Z,3.30
2017-08-18T23:52:38.235Z,3.07
2017-08-18T23:55:04.807Z,3.30
2017-08-18T23:57:31.409Z,3.10
2017-08-18T23:59:58.069Z,3.00
